METAR Data
IDs: Format: Raw Decoded Include TAF

Data at: 0123 UTC 06 Dec 2019

KCHA 060053Z 00000KT 10SM FEW160 07/01 A3014 RMK AO2 SLP210 T00720006
KCHA 052353Z 00000KT 10SM FEW250 08/01 A3014 RMK AO2 SLP206 T00830006 10178 20083 53007
KCHA 052253Z 00000KT 10SM FEW250 12/M01 A3013 RMK AO2 SLP202 T01171011
KCHA 052153Z 17003KT 10SM FEW250 17/M03 A3012 RMK AO2 SLP199 T01671033
KCHA 052053Z 12003KT 10SM FEW250 17/M03 A3012 RMK AO2 SLP197 T01721033 56013
KCHA 051953Z 00000KT 10SM FEW005 FEW200 SCT250 17/M02 A3012 RMK AO2 SLP198 FU FEW005 T01671022
KCHA 051853Z 34003KT 10SM FEW230 SCT300 16/M02 A3013 RMK AO2 SLP202 T01611017
KCHA 051753Z 00000KT 10SM SCT230 SCT300 15/M01 A3015 RMK AO2 SLP212 T01501011 10150 20022 58006
KCHA 051653Z 00000KT 10SM SCT230 SCT300 13/00 A3018 RMK AO2 SLP220 T01280000
KCHA 051553Z 00000KT 10SM SCT230 SCT300 11/01 A3020 RMK AO2 SLP226 T01060011
KCHA 051453Z 00000KT 10SM BKN230 08/02 A3017 RMK AO2 SLP219 T00780017 51026
KCHA 051353Z 00000KT 10SM BKN230 04/01 A3015 RMK AO2 SLP211 T00440011
KCHA 051253Z 00000KT 10SM BKN230 03/00 A3012 RMK AO2 SLP200 T00280000
KCHA 051153Z 21003KT 10SM BKN220 03/00 A3009 RMK AO2 SLP192 T00280000 10083 20017 53013 $
KCHA 051053Z 00000KT 10SM BKN220 02/00 A3007 RMK AO2 SLP183 T00220000 $
KCHA 050953Z 34003KT 10SM CLR 03/M01 A3005 RMK AO2 SLP177 T00281006 $
KCHA 050853Z 00000KT 10SM CLR 04/00 A3005 RMK AO2 SLP176 T00390000 53009
KCHA 050753Z 28008KT 10SM CLR 08/M01 A3004 RMK AO2 SLP170 T00831006
KCHA 050653Z 28006KT 10SM CLR 07/00 A3003 RMK AO2 SLP167 T00670000
KCHA 050553Z 00000KT 10SM CLR 03/01 A3003 RMK AO2 SLP168 T00280006 10094 20028 51015
KCHA 050453Z 00000KT 10SM BKN250 04/00 A3001 RMK AO2 SLP164 LAST T00390000 401611011
KCHA 050353Z 00000KT 10SM SCT250 04/00 A3000 RMK AO2 SLP157 T00440000
KCHA 050253Z 00000KT 10SM SCT250 05/01 A2998 RMK AO2 SLP153 T00500006 51013
KCHA 050153Z 00000KT 10SM FEW250 07/M01 A2997 RMK AO2 SLP150 T00671006
KCHA 050053Z 00000KT 10SM CLR 08/M01 A2996 RMK AO2 SLP148 T00781006
KCHA 042353Z 00000KT 10SM FEW250 09/M01 A2994 RMK AO2 SLP141 T00941011 10161 20094 52017
KCHA 042253Z 28005KT 10SM SCT250 12/M03 A2993 RMK AO2 SLP135 T01221028
KCHA 042153Z 30007KT 10SM SCT250 14/M03 A2991 RMK AO2 SLP127 T01441033
KCHA 042053Z 27011KT 10SM SCT250 16/M03 A2989 RMK AO2 SLP122 T01611028 55005
KCHA 041953Z 27009G15KT 10SM SCT250 16/M02 A2987 RMK AO2 SLP116 T01561017
KCHA 041853Z 29010KT 10SM CLR 15/M01 A2988 RMK AO2 SLP118 T01501006
KCHA 041753Z 26009KT 10SM CLR 13/01 A2990 RMK AO2 SLP126 T01330006 10133 21011 58006
KCHA 041653Z 27007KT 10SM CLR 12/01 A2992 RMK AO2 SLP133 T01170006
KCHA 041553Z 20005KT 10SM CLR 09/01 A2993 RMK AO2 SLP136 T00940011
KCHA 041453Z 19003KT 10SM CLR 07/02 A2992 RMK AO2 SLP134 T00670017 51007
KCHA 041353Z 00000KT 10SM CLR 03/00 A2992 RMK AO2 SLP135 T00280000